Home > Products > Valid Products > TAF

000
FTUS41 KGYX 282106 AAB
TAFPWM
TAF AMD
KPWM 282106Z 2821/2918 18007KT P6SM SCT040 SCT120
     FM290000 VRB03KT P6SM SCT100
     FM291500 23004KT P6SM SCT050=



000
FTUS41 KGYX 281955 AAA
TAFPWM
TAF AMD
KPWM 281955Z 2820/2918 18007KT P6SM VCTS BKN040CB
     FM282030 36010G30KT 3SM +TSRA OVC020CB
     FM282200 18007KT P6SM SCT040 BKN100
     FM290000 VRB03KT P6SM SCT100
     FM291500 23004KT P6SM SCT050=



000
FTUS41 KGYX 281905 AAA
TAFAUG
TAF AMD
KAUG 281905Z 2819/2918 VRB04KT P6SM SCT040
     FM291500 30005KT P6SM SCT050=



000
FTUS41 KGYX 281726
TAFCON
TAF
KCON 281726Z 2818/2918 32005KT P6SM BKN050
     FM290000 32004KT P6SM SCT050=



000
FTUS41 KGYX 281726
TAFAUG
TAF
KAUG 281726Z 2818/2918 VRB04KT P6SM SCT040
     FM281900 VRB15G25KT 5SM -TSRA BR BKN035CB
     FM282000 VRB04KT P6SM BKN040
     FM291500 30005KT P6SM SCT050=



000
FTUS41 KGYX 281726
TAFLEB
TAF
KLEB 281726Z 2818/2918 35004KT P6SM SCT045
     FM290800 00000KT 1 1/2SM BR OVC005
     FM291500 VRB04KT P6SM SCT050=



000
FTUS41 KGYX 281726
TAFPSM
TAF
KPSM 281726Z 2818/2918 11009KT P6SM SCT035
     FM290000 VRB03KT P6SM SCT100
     FM291500 24004KT P6SM SCT050=



000
FTUS41 KGYX 281726
TAFPWM
TAF
KPWM 281726Z 2818/2918 15007KT P6SM SCT035
     FM290000 VRB03KT P6SM SCT100
     FM291500 23004KT P6SM SCT050=



000
FTUS41 KGYX 281554 AAF
TAFAUG
TAF AMD
KAUG 281554Z 2816/2912 VRB04KT P6SM SCT040 BKN100=



000
FTUS41 KGYX 281537 AAE
TAFAUG
TAF AMD
KAUG 281537Z 2816/2912 VRB03KT P6SM BKN025
     FM281630 VRB04KT P6SM SCT050 BKN100=



000
FTUS41 KGYX 281349 AAE
TAFLEB
TAF AMD
KLEB 281349Z 2814/2912 34005KT P6SM FEW050 SCT100
     FM290800 00000KT 1/2SM FG VV001=



000
FTUS41 KGYX 281349 AAE
TAFLEB
TAF AMD
KLEB 281349Z 2814/2912 34005KT P6SM FEW050 SCT100
     FM290800 00000KT 1/2SM FG VV001=



000
FTUS41 KGYX 281349 AAD
TAFAUG
TAF AMD
KAUG 281349Z 2814/2912 VRB04KT P6SM SCT050 BKN100 PROB30 2823/2901
      3SM -TSRA BKN050CB=



000
FTUS41 KGYX 281349 AAD
TAFAUG
TAF AMD
KAUG 281349Z 2814/2912 VRB04KT P6SM SCT050 BKN100 PROB30 2823/2901
      3SM -TSRA BKN050CB=



000
FTUS41 KGYX 281303 AAD
TAFLEB
TAF AMD
KLEB 281303Z 2813/2912 00000KT P6SM BKN003
     FM281400 34005KT P6SM FEW050 SCT100
     FM290800 00000KT 1/2SM FG VV001=



000
FTUS41 KGYX 281303 AAD
TAFLEB
TAF AMD
KLEB 281303Z 2813/2912 00000KT P6SM BKN003
     FM281400 34005KT P6SM FEW050 SCT100
     FM290800 00000KT 1/2SM FG VV001=



000
FTUS41 KGYX 281302 AAC
TAFAUG
TAF AMD
KAUG 281302Z 2813/2912 VRB03KT P6SM BKN006
     FM281400 VRB04KT P6SM SCT050 BKN100 PROB30 2822/2901 3SM -TSRA
      BKN050CB=



000
FTUS41 KGYX 281302 AAC
TAFAUG
TAF AMD
KAUG 281302Z 2813/2912 VRB03KT P6SM BKN006
     FM281400 VRB04KT P6SM SCT050 BKN100 PROB30 2822/2901 3SM -TSRA
      BKN050CB=



000
FTUS41 KGYX 281229 AAB
TAFPWM
TAF AMD
KPWM 281229Z 2812/2912 VRB03KT 6SM BR SCT005
     FM281300 VRB03KT P6SM FEW100
     FM281500 18007KT P6SM SCT050=



000
FTUS41 KGYX 281229 AAB
TAFPWM
TAF AMD
KPWM 281229Z 2812/2912 VRB03KT 6SM BR SCT005
     FM281300 VRB03KT P6SM FEW100
     FM281500 18007KT P6SM SCT050=



000
FTUS41 KGYX 281211 AAC
TAFLEB
TAF AMD
KLEB 281211Z 2812/2912 00000KT P6SM BKN003
     FM281230 34005KT P6SM FEW050 SCT100
     FM290800 00000KT 1/2SM FG VV001=



000
FTUS41 KGYX 281209 AAB
TAFAUG
TAF AMD
KAUG 281209Z 2812/2912 VRB03KT 1/2SM FG VV002
     FM281300 VRB04KT P6SM SCT050 BKN100 PROB30 2821/2901 3SM -TSRA
      BKN050CB=



000
FTUS41 KGYX 281208 AAB
TAFLEB
TAF AMD
KLEB 281208Z 2812/2912 34005KT P6SM FEW050 SCT100
     FM290800 00000KT 1/2SM FG VV001=



000
FTUS41 KGYX 281143 AAA
TAFLEB
TAF AMD
KLEB 281143Z 2812/2912 VRB03KT 3SM BR BKN008
     FM281300 33005KT P6SM FEW050 SCT100
     FM290800 00000KT 1/2SM FG VV001=



000
FTUS41 KGYX 281143 AAA
TAFLEB
TAF AMD
KLEB 281143Z 2812/2912 VRB03KT 3SM BR BKN008
     FM281300 33005KT P6SM FEW050 SCT100
     FM290800 00000KT 1/2SM FG VV001=



000
FTUS41 KGYX 281141 AAA
TAFAUG
TAF AMD
KAUG 281141Z 2812/2912 VRB03KT 1/4SM FG VV002
     FM281300 VRB04KT P6SM SCT050 BKN100 PROB30 2821/2901 3SM -TSRA
      BKN050CB=



000
FTUS41 KGYX 281141 AAA
TAFAUG
TAF AMD
KAUG 281141Z 2812/2912 VRB03KT 1/4SM FG VV002
     FM281300 VRB04KT P6SM SCT050 BKN100 PROB30 2821/2901 3SM -TSRA
      BKN050CB=



000
FTUS41 KGYX 281140 AAA
TAFPWM
TAF AMD
KPWM 281140Z 2812/2912 05005KT 5SM BR BKN004 OVC110
     FM281230 VRB03KT P6SM FEW100
     FM281500 18007KT P6SM SCT050=



000
FTUS41 KGYX 281140 AAA
TAFPWM
TAF AMD
KPWM 281140Z 2812/2912 05005KT 5SM BR BKN004 OVC110
     FM281230 VRB03KT P6SM FEW100
     FM281500 18007KT P6SM SCT050=



000
FTUS41 KGYX 281120
TAFPSM
TAF
KPSM 281120Z 2812/2912 25005KT P6SM FEW100
     FM281800 16007KT P6SM SCT050=



000
FTUS41 KGYX 281120
TAFLEB
TAF
KLEB 281120Z 2812/2912 33005KT P6SM FEW050 SCT100
     FM290800 00000KT 1/2SM FG VV001=



000
FTUS41 KGYX 281120
TAFPWM
TAF
KPWM 281120Z 2812/2912 VRB03KT P6SM FEW100
     FM281500 18007KT P6SM SCT050=



000
FTUS41 KGYX 281120
TAFAUG
TAF
KAUG 281120Z 2812/2912 VRB04KT P6SM SCT050 BKN100 PROB30 2821/2901
      3SM -TSRA BKN050CB=



000
FTUS41 KGYX 281120
TAFCON
TAF
KCON 281120Z 2812/2912 28005KT P6SM FEW050 SCT100=



000
FTUS41 KGYX 280854 AAA
TAFPWM
TAF AMD
KPWM 280854Z 2809/2906 VRB03KT 5SM -SHRA BR BKN005
     FM281200 28006KT P6SM FEW005
     FM281500 18007KT P6SM SCT050=



000
FTUS41 KGYX 280854 AAA
TAFLEB
TAF AMD
KLEB 280854Z 2809/2906 00000KT P6SM FEW006 BKN100
      TEMPO 2809/2812 BKN007
     FM281200 33005KT P6SM SCT050 BKN100=



000
FTUS41 KGYX 280854 AAA
TAFAUG
TAF AMD
KAUG 280854Z 2809/2906 16004KT P6SM SCT008 BKN100
      TEMPO 2809/2812 1SM BR BKN008
     FM281300 22005KT P6SM FEW005 SCT050 BKN100
     FM281500 VRB05KT P6SM SCT050 BKN100 PROB30 2819/2901 4SM -TSRA
      BKN050CB=



000
FTUS41 KGYX 280854 AAA
TAFPWM
TAF AMD
KPWM 280854Z 2809/2906 VRB03KT 5SM -SHRA BR BKN005
     FM281200 28006KT P6SM FEW005
     FM281500 18007KT P6SM SCT050=



000
FTUS41 KGYX 280854 AAA
TAFLEB
TAF AMD
KLEB 280854Z 2809/2906 00000KT P6SM FEW006 BKN100
      TEMPO 2809/2812 BKN007
     FM281200 33005KT P6SM SCT050 BKN100=



000
FTUS41 KGYX 280854 AAA
TAFAUG
TAF AMD
KAUG 280854Z 2809/2906 16004KT P6SM SCT008 BKN100
      TEMPO 2809/2812 1SM BR BKN008
     FM281300 22005KT P6SM FEW005 SCT050 BKN100
     FM281500 VRB05KT P6SM SCT050 BKN100 PROB30 2819/2901 4SM -TSRA
      BKN050CB=



000
FTUS41 KGYX 280854 AAA
TAFCON
TAF AMD
KCON 280854Z 2809/2906 VRB03KT P6SM -SHRA BKN100
     FM281300 28005KT P6SM FEW050 SCT100=



000
FTUS41 KGYX 280854 AAA
TAFPSM
TAF AMD
KPSM 280854Z 2809/2906 VRB03KT P6SM BKN100
     FM281230 25005KT P6SM FEW050 SCT100=



000
FTUS41 KGYX 280854 AAA
TAFPSM
TAF AMD
KPSM 280854Z 2809/2906 VRB03KT P6SM BKN100
     FM281230 25005KT P6SM FEW050 SCT100=



000
FTUS41 KGYX 280854 AAA
TAFCON
TAF AMD
KCON 280854Z 2809/2906 VRB03KT P6SM -SHRA BKN100
     FM281300 28005KT P6SM FEW050 SCT100=



000
FTUS41 KGYX 280535
TAFPWM
TAF
KPWM 280535Z 2806/2906 VRB03KT 1/2SM FG VV002
     FM281200 28006KT P6SM FEW005
     FM281500 18007KT P6SM SCT050=



000
FTUS41 KGYX 280535
TAFCON
TAF
KCON 280535Z 2806/2906 VRB03KT P6SM BKN100
      TEMPO 2808/2812 1/2SM FG VV002
     FM281300 28005KT P6SM FEW050 SCT100=



000
FTUS41 KGYX 280535
TAFPSM
TAF
KPSM 280535Z 2806/2906 VRB03KT P6SM BKN100
     FM281230 25005KT P6SM FEW050 SCT100=



000
FTUS41 KGYX 280535
TAFAUG
TAF
KAUG 280535Z 2806/2906 16004KT 1/2SM FG OVC002
      TEMPO 2808/2812 1/4SM -SHRA FG VV001
     FM281300 22005KT P6SM FEW005 SCT050 BKN100
     FM281500 VRB05KT P6SM SCT050 BKN100 PROB30 2819/2901 4SM -TSRA
      BKN050CB=



000
FTUS41 KGYX 280535
TAFLEB
TAF
KLEB 280535Z 2806/2906 00000KT 1SM BR SKC
      TEMPO 2806/2808 1/4SM FG VV001
     FM280800 00000KT 1/4SM FG VV001
      TEMPO 2808/2812 4SM -TSRA BKN005 OVC050CB
     FM281200 33005KT P6SM SCT050 BKN100=



000
FTUS41 KGYX 280301 AAA
TAFAUG
TAF AMD
KAUG 280301Z 2803/2824 00000KT 5SM BR OVC003
     FM280400 VRB03KT 3SM BR OVC002
     FM280500 VRB03KT 1/4SM FG OVC002
     FM281300 30005KT P6SM SCT030
     FM281500 30005KT P6SM BKN040=



000
FTUS41 KGYX 280301 AAA
TAFAUG
TAF AMD
KAUG 280301Z 2803/2824 00000KT 5SM BR OVC003
     FM280400 VRB03KT 3SM BR OVC002
     FM280500 VRB03KT 1/4SM FG OVC002
     FM281300 30005KT P6SM SCT030
     FM281500 30005KT P6SM BKN040=



000
FTUS41 KGYX 280229 AAB
TAFPWM
TAF AMD
KPWM 280229Z 2802/2824 13003KT 1 1/2SM BR OVC002
     FM280400 VRB03KT 1/2SM FG VV002
     FM281300 30006KT P6SM SCT030
     FM281500 30005KT P6SM BKN040=



000
FTUS41 KGYX 280119 AAA
TAFPWM
TAF AMD
KPWM 280119Z 2801/2824 08003KT P6SM BKN005
     FM280400 VRB03KT 4SM BR OVC003
     FM280600 VRB03KT 1/2SM FG VV002
     FM281300 30006KT P6SM SCT030
     FM281500 30005KT P6SM BKN040=



000
FTUS41 KGYX 272326
TAFPSM
TAF
KPSM 272326Z 2800/2824 13004KT P6SM FEW025 BKN200
     FM280300 24003KT 3SM BR OVC015
     FM280600 26003KT 1/4SM FG OVC002
     FM281230 28006KT P6SM SCT035
     FM281600 30005KT P6SM BKN040=



000
FTUS41 KGYX 272326
TAFCON
TAF
KCON 272326Z 2800/2824 18005KT P6SM SKC
     FM280600 VRB03KT P6SM BKN025
     FM280800 00000KT 1/4SM FG VV002
     FM281300 32004KT P6SM SCT040
     FM281500 30005KT P6SM BKN040=



000
FTUS41 KGYX 272326
TAFPWM
TAF
KPWM 272326Z 2800/2824 09008KT P6SM SCT200
     FM280600 VRB03KT 4SM BR OVC010
     FM280800 VRB03KT 1/2SM FG VV002
     FM281300 30006KT P6SM SCT030
     FM281500 30005KT P6SM BKN040=



000
FTUS41 KGYX 272326
TAFLEB
TAF
KLEB 272326Z 2800/2824 20008KT P6SM SKC
     FM280500 00000KT 1/2SM FG VV002
     FM281300 33005KT P6SM BKN040=



000
FTUS41 KGYX 272326
TAFAUG
TAF
KAUG 272326Z 2800/2824 17006KT P6SM SKC
     FM280500 VRB03KT P6SM BKN012
     FM280700 VRB03KT 1/4SM FG OVC002
     FM281300 30005KT P6SM SCT030
     FM281500 30005KT P6SM BKN040=



000
FTUS41 KGYX 272326
TAFPWM
TAF
KPWM 272326Z 2800/2824 09008KT P6SM SCT200
     FM280600 VRB03KT 4SM BR OVC010
     FM280800 VRB03KT 1/2SM FG VV002
     FM281300 30006KT P6SM SCT030
     FM281500 30005KT P6SM BKN040=



000
FTUS41 KGYX 272326
TAFPSM
TAF
KPSM 272326Z 2800/2824 13004KT P6SM FEW025 BKN200
     FM280300 24003KT 3SM BR OVC015
     FM280600 26003KT 1/4SM FG OVC002
     FM281230 28006KT P6SM SCT035
     FM281600 30005KT P6SM BKN040=



000
FTUS41 KGYX 272326
TAFCON
TAF
KCON 272326Z 2800/2824 18005KT P6SM SKC
     FM280600 VRB03KT P6SM BKN025
     FM280800 00000KT 1/4SM FG VV002
     FM281300 32004KT P6SM SCT040
     FM281500 30005KT P6SM BKN040=



000
FTUS41 KGYX 272326
TAFAUG
TAF
KAUG 272326Z 2800/2824 17006KT P6SM SKC
     FM280500 VRB03KT P6SM BKN012
     FM280700 VRB03KT 1/4SM FG OVC002
     FM281300 30005KT P6SM SCT030
     FM281500 30005KT P6SM BKN040=



000
FTUS41 KGYX 272326
TAFLEB
TAF
KLEB 272326Z 2800/2824 20008KT P6SM SKC
     FM280500 00000KT 1/2SM FG VV002
     FM281300 33005KT P6SM BKN040=



000
FTUS41 KGYX 272211 AAA
TAFAUG
TAF AMD
KAUG 272211Z 2722/2818 17006KT P6SM SCT026
     FM280300 VRB03KT P6SM BKN012
     FM280500 VRB03KT 1/4SM FG OVC002
     FM281300 30005KT P6SM SCT030=



000
FTUS41 KGYX 272211 AAA
TAFAUG
TAF AMD
KAUG 272211Z 2722/2818 17006KT P6SM SCT026
     FM280300 VRB03KT P6SM BKN012
     FM280500 VRB03KT 1/4SM FG OVC002
     FM281300 30005KT P6SM SCT030=



000
FTUS41 KGYX 272210 AAA
TAFPSM
TAF AMD
KPSM 272210Z 2722/2818 12007KT P6SM FEW025 BKN200
     FM280300 24003KT 3SM BR OVC015
     FM280600 26003KT 1/4SM FG OVC002
     FM281230 28006KT P6SM SCT035=



000
FTUS41 KGYX 272208 AAA
TAFPWM
TAF AMD
KPWM 272208Z 2722/2818 12006KT P6SM SCT015 SCT050
     FM280100 VRB03KT 4SM BR OVC010
     FM280500 VRB03KT 1/2SM FG VV002
     FM281300 30006KT P6SM SCT030=



000
FTUS41 KGYX 271744
TAFPWM
TAF
KPWM 271744Z 2718/2818 12006KT P6SM SCT015 SCT050
      TEMPO 2718/2722 BKN015
     FM272200 15004KT P6SM BKN015
     FM280100 VRB03KT 4SM BR OVC010
     FM280500 VRB03KT 1/2SM FG VV002
     FM281300 30006KT P6SM SCT030=



000
FTUS41 KGYX 271744
TAFLEB
TAF
KLEB 271744Z 2718/2818 VRB03KT P6SM SCT025
     FM280500 00000KT 1/2SM FG VV002
     FM281300 33005KT P6SM BKN040=



000
FTUS41 KGYX 271744
TAFAUG
TAF
KAUG 271744Z 2718/2818 33005KT P6SM BKN018
     FM271900 20005KT P6SM BKN025
     FM280100 VRB03KT 1/4SM FG OVC002
     FM281300 30005KT P6SM SCT030=



000
FTUS41 KGYX 271744
TAFCON
TAF
KCON 271744Z 2718/2818 20004KT P6SM BKN035
     FM280200 VRB03KT P6SM BKN025
     FM280700 00000KT 1/4SM FG VV002
     FM281300 32004KT P6SM SCT040=



000
FTUS41 KGYX 271744
TAFPSM
TAF
KPSM 271744Z 2718/2818 09005KT P6SM BKN025
      TEMPO 2718/2722 SCT025
     FM280200 24003KT 3SM BR OVC015
     FM280600 26003KT 1/4SM FG OVC002
     FM281230 28006KT P6SM SCT035=



000
FTUS41 KGYX 271744
TAFLEB
TAF
KLEB 271744Z 2718/2818 VRB03KT P6SM SCT025
     FM280500 00000KT 1/2SM FG VV002
     FM281300 33005KT P6SM BKN040=



000
FTUS41 KGYX 271744
TAFPWM
TAF
KPWM 271744Z 2718/2818 12006KT P6SM SCT015 SCT050
      TEMPO 2718/2722 BKN015
     FM272200 15004KT P6SM BKN015
     FM280100 VRB03KT 4SM BR OVC010
     FM280500 VRB03KT 1/2SM FG VV002
     FM281300 30006KT P6SM SCT030=



000
FTUS41 KGYX 271744
TAFCON
TAF
KCON 271744Z 2718/2818 20004KT P6SM BKN035
     FM280200 VRB03KT P6SM BKN025
     FM280700 00000KT 1/4SM FG VV002
     FM281300 32004KT P6SM SCT040=



000
FTUS41 KGYX 271744
TAFAUG
TAF
KAUG 271744Z 2718/2818 33005KT P6SM BKN018
     FM271900 20005KT P6SM BKN025
     FM280100 VRB03KT 1/4SM FG OVC002
     FM281300 30005KT P6SM SCT030=



000
FTUS41 KGYX 271744
TAFPSM
TAF
KPSM 271744Z 2718/2818 09005KT P6SM BKN025
      TEMPO 2718/2722 SCT025
     FM280200 24003KT 3SM BR OVC015
     FM280600 26003KT 1/4SM FG OVC002
     FM281230 28006KT P6SM SCT035=



000
FTUS41 KGYX 271452 AAA
TAFPWM
TAF AMD
KPWM 271452Z 2715/2812 11005KT P6SM SCT012 SCT050
     FM271800 15006KT P6SM BKN050
     FM280100 VRB03KT 3SM BR BKN010
     FM280800 VRB03KT 1/2SM FG VV002=



000
FTUS41 KGYX 271452 AAA
TAFPWM
TAF AMD
KPWM 271452Z 2715/2812 11005KT P6SM SCT012 SCT050
     FM271800 15006KT P6SM BKN050
     FM280100 VRB03KT 3SM BR BKN010
     FM280800 VRB03KT 1/2SM FG VV002=



000
FTUS41 KGYX 271212 AAA
TAFCON
TAF AMD
KCON 271212Z 2712/2812 00000KT P6SM SCT025 BKN050
      TEMPO 2712/2714 BKN025
     FM271600 15005KT P6SM SCT025 BKN050 PROB30 2721/2802 5SM -TSRA
      BKN050CB=



000
FTUS41 KGYX 271212 AAA
TAFCON
TAF AMD
KCON 271212Z 2712/2812 00000KT P6SM SCT025 BKN050
      TEMPO 2712/2714 BKN025
     FM271600 15005KT P6SM SCT025 BKN050 PROB30 2721/2802 5SM -TSRA
      BKN050CB=



000
FTUS41 KGYX 271120
TAFCON
TAF
KCON 271120Z 2712/2812 00000KT P6SM BKN004 OVC025
      TEMPO 2712/2715 FEW004 BKN025
     FM271500 16006KT P6SM SCT025 BKN050 PROB30 2721/2802 5SM -TSRA
      BKN050CB=



000
FTUS41 KGYX 271120
TAFLEB
TAF
KLEB 271120Z 2712/2812 00000KT P6SM OVC008
     FM271300 VRB03KT P6SM SCT008 BKN025
     FM271500 18004KT P6SM SCT050 PROB30 2722/2802 5SM -TSRA
      BKN050CB
     FM280700 00000KT 1/2SM FG VV001=



000
FTUS41 KGYX 271120
TAFCON
TAF
KCON 271120Z 2712/2812 00000KT P6SM BKN004 OVC025
      TEMPO 2712/2715 FEW004 BKN025
     FM271500 16006KT P6SM SCT025 BKN050 PROB30 2721/2802 5SM -TSRA
      BKN050CB=



000
FTUS41 KGYX 271120
TAFLEB
TAF
KLEB 271120Z 2712/2812 00000KT P6SM OVC008
     FM271300 VRB03KT P6SM SCT008 BKN025
     FM271500 18004KT P6SM SCT050 PROB30 2722/2802 5SM -TSRA
      BKN050CB
     FM280700 00000KT 1/2SM FG VV001=



000
FTUS41 KGYX 271120
TAFPSM
TAF
KPSM 271120Z 2712/2812 VRB06KT 4SM BR BKN004 OVC015
     FM271300 VRB03KT P6SM BKN015
     FM271500 12005KT P6SM SCT025 BKN050=



000
FTUS41 KGYX 271120
TAFPWM
TAF
KPWM 271120Z 2712/2812 VRB03KT 1SM BR BKN003
     FM271300 06004KT P6SM BKN004 OVC015
     FM271600 15006KT P6SM SCT050 BKN100
     FM280200 20004KT 3SM BR BKN010
     FM280800 VRB03KT 1/2SM FG VV002=



000
FTUS41 KGYX 271120
TAFPWM
TAF
KPWM 271120Z 2712/2812 VRB03KT 1SM BR BKN003
     FM271300 06004KT P6SM BKN004 OVC015
     FM271600 15006KT P6SM SCT050 BKN100
     FM280200 20004KT 3SM BR BKN010
     FM280800 VRB03KT 1/2SM FG VV002=



000
FTUS41 KGYX 271120
TAFPSM
TAF
KPSM 271120Z 2712/2812 VRB06KT 4SM BR BKN004 OVC015
     FM271300 VRB03KT P6SM BKN015
     FM271500 12005KT P6SM SCT025 BKN050=



000
FTUS41 KGYX 271120
TAFAUG
TAF
KAUG 271120Z 2712/2812 00000KT P6SM OVC002
      TEMPO 2713/2716 BKN015
     FM271600 17004KT P6SM SCT025 BKN050 PROB30 2723/2803 5SM -TSRA
      BKN050CB
     FM280400 18004KT 1/2SM FG VV002=



000
FTUS41 KGYX 271120
TAFAUG
TAF
KAUG 271120Z 2712/2812 00000KT P6SM OVC002
      TEMPO 2713/2716 BKN015
     FM271600 17004KT P6SM SCT025 BKN050 PROB30 2723/2803 5SM -TSRA
      BKN050CB
     FM280400 18004KT 1/2SM FG VV002=



000
FTUS41 KGYX 271049 AAB
TAFPSM
TAF AMD
KPSM 271049Z 2711/2806 01004KT 1SM BR BKN002
     FM271200 03006KT P6SM BKN015
     FM271500 10005KT P6SM SCT025 BKN050=



000
FTUS41 KGYX 271049 AAB
TAFPSM
TAF AMD
KPSM 271049Z 2711/2806 01004KT 1SM BR BKN002
     FM271200 03006KT P6SM BKN015
     FM271500 10005KT P6SM SCT025 BKN050=



000
FTUS41 KGYX 271049 AAB
TAFAUG
TAF AMD
KAUG 271049Z 2711/2806 00000KT 4SM BR BKN002
     FM271200 00000KT P6SM BKN003
     FM271600 18004KT P6SM SCT025 BKN050
     FM280400 18004KT 1/2SM FG VV002=



000
FTUS41 KGYX 271049 AAB
TAFCON
TAF AMD
KCON 271049Z 2711/2806 00000KT P6SM OVC007
     FM271500 18006KT P6SM SCT025 BKN050 PROB30 2721/2802 5SM -TSRA
      BKN050CB=



000
FTUS41 KGYX 271049 AAB
TAFPWM
TAF AMD
KPWM 271049Z 2711/2806 05004KT 1/2SM FG OVC002
     FM271200 06004KT P6SM BKN004 OVC015
     FM271600 15006KT P6SM SCT050 BKN100
     FM280200 20004KT 3SM BR BKN010=



000
FTUS41 KGYX 271049 AAB
TAFCON
TAF AMD
KCON 271049Z 2711/2806 00000KT P6SM OVC007
     FM271500 18006KT P6SM SCT025 BKN050 PROB30 2721/2802 5SM -TSRA
      BKN050CB=



000
FTUS41 KGYX 271049 AAB
TAFAUG
TAF AMD
KAUG 271049Z 2711/2806 00000KT 4SM BR BKN002
     FM271200 00000KT P6SM BKN003
     FM271600 18004KT P6SM SCT025 BKN050
     FM280400 18004KT 1/2SM FG VV002=



000
FTUS41 KGYX 271049 AAB
TAFPWM
TAF AMD
KPWM 271049Z 2711/2806 05004KT 1/2SM FG OVC002
     FM271200 06004KT P6SM BKN004 OVC015
     FM271600 15006KT P6SM SCT050 BKN100
     FM280200 20004KT 3SM BR BKN010=



000
FTUS41 KGYX 270903 AAA
TAFAUG
TAF AMD
KAUG 270903Z 2709/2806 00000KT 1/4SM FG OVC001
      TEMPO 2709/2713 4SM BR BKN002
     FM271300 00000KT P6SM BKN003
     FM271600 18004KT P6SM SCT025 BKN050
     FM280400 18004KT 1/2SM FG VV002=



000
FTUS41 KGYX 270903 AAA
TAFCON
TAF AMD
KCON 270903Z 2709/2806 00000KT P6SM OVC007
      TEMPO 2709/2712 1SM BR BKN002
     FM271500 18006KT P6SM SCT025 BKN050 PROB30 2721/2802 5SM -TSRA
      BKN050CB=



000
FTUS41 KGYX 270903 AAA
TAFPWM
TAF AMD
KPWM 270903Z 2709/2806 05004KT 1/4SM FG OVC002
      TEMPO 2709/2712 1SM BR OVC002
     FM271200 06004KT P6SM BKN004 OVC015
     FM271600 15006KT P6SM SCT050 BKN100
     FM280200 20004KT 3SM BR BKN010=



000
FTUS41 KGYX 270903 AAA
TAFPSM
TAF AMD
KPSM 270903Z 2709/2806 01004KT 1/4SM FG VV001
     FM271200 03006KT P6SM BKN015
     FM271500 10005KT P6SM SCT025 BKN050=



000
FTUS41 KGYX 270903 AAA
TAFLEB
TAF AMD
KLEB 270903Z 2709/2806 00000KT P6SM OVC008
     FM271300 VRB03KT P6SM SCT008 BKN025
     FM271500 18004KT P6SM SCT050 PROB30 2720/2802 5SM -TSRA
      BKN025CB=



000
FTUS41 KGYX 270903 AAA
TAFPWM
TAF AMD
KPWM 270903Z 2709/2806 05004KT 1/4SM FG OVC002
      TEMPO 2709/2712 1SM BR OVC002
     FM271200 06004KT P6SM BKN004 OVC015
     FM271600 15006KT P6SM SCT050 BKN100
     FM280200 20004KT 3SM BR BKN010=



000
FTUS41 KGYX 270903 AAA
TAFAUG
TAF AMD
KAUG 270903Z 2709/2806 00000KT 1/4SM FG OVC001
      TEMPO 2709/2713 4SM BR BKN002
     FM271300 00000KT P6SM BKN003
     FM271600 18004KT P6SM SCT025 BKN050
     FM280400 18004KT 1/2SM FG VV002=



000
FTUS41 KGYX 270903 AAA
TAFCON
TAF AMD
KCON 270903Z 2709/2806 00000KT P6SM OVC007
      TEMPO 2709/2712 1SM BR BKN002
     FM271500 18006KT P6SM SCT025 BKN050 PROB30 2721/2802 5SM -TSRA
      BKN050CB=



000
FTUS41 KGYX 270903 AAA
TAFPSM
TAF AMD
KPSM 270903Z 2709/2806 01004KT 1/4SM FG VV001
     FM271200 03006KT P6SM BKN015
     FM271500 10005KT P6SM SCT025 BKN050=



000
FTUS41 KGYX 270903 AAA
TAFLEB
TAF AMD
KLEB 270903Z 2709/2806 00000KT P6SM OVC008
     FM271300 VRB03KT P6SM SCT008 BKN025
     FM271500 18004KT P6SM SCT050 PROB30 2720/2802 5SM -TSRA
      BKN025CB=



000
FTUS41 KGYX 270527
TAFAUG
TAF
KAUG 270527Z 2706/2806 00000KT 1/4SM FG OVC001
     FM271300 00000KT P6SM BKN003
     FM271600 18004KT P6SM SCT025 BKN050
     FM280400 18004KT 1/2SM FG VV002=



000
FTUS41 KGYX 270527
TAFCON
TAF
KCON 270527Z 2706/2806 00000KT P6SM BKN009 BKN100
      TEMPO 2708/2712 SCT009 BKN100
     FM271200 18006KT P6SM SCT025 BKN050 PROB30 2721/2802 5SM -TSRA
      BKN050CB=



000
FTUS41 KGYX 270527
TAFPWM
TAF
KPWM 270527Z 2706/2806 05004KT 1/2SM FG OVC002
      TEMPO 2708/2712 1/4SM FG VV002
     FM271200 06004KT P6SM BKN004 OVC015
     FM271600 15006KT P6SM SCT050 BKN100
     FM280200 20004KT 3SM BR BKN010=



000
FTUS41 KGYX 270527
TAFPSM
TAF
KPSM 270527Z 2706/2806 01004KT 1/4SM FG VV001
     FM271200 03006KT P6SM BKN015
     FM271500 10005KT P6SM SCT025 BKN050=



000
FTUS41 KGYX 270527
TAFLEB
TAF
KLEB 270527Z 2706/2806 00000KT P6SM -SHRA SCT015 BKN025
     FM270900 00000KT 1/2SM FG OVC001
     FM271300 VRB03KT P6SM SCT001 BKN025
     FM271500 18004KT P6SM SCT050 PROB30 2720/2802 5SM -TSRA
      BKN025CB=



000
FTUS41 KGYX 270338 AAA
TAFAUG
TAF AMD
KAUG 270338Z 2704/2724 00000KT 1/4SM FG OVC001
     FM271400 03003KT P6SM OVC007
     FM271600 14003KT P6SM BKN050=



000
FTUS41 KGYX 262320
TAFPSM
TAF
KPSM 262320Z 2700/2724 16005KT 6SM BR SCT025
     FM270600 00000KT 4SM BR SCT015
     FM270900 00000KT 3SM BR BKN012
     FM271300 12006KT P6SM BKN050=



000
FTUS41 KGYX 262320
TAFLEB
TAF
KLEB 262320Z 2700/2724 VRB03KT P6SM OVC050
     FM270600 00000KT 1 1/2SM BR OVC025
     FM270900 00000KT 1/2SM FG OVC001
     FM271300 VRB03KT 6SM BR OVC035
     FM271500 19003KT P6SM SCT040 SCT250=



000
FTUS41 KGYX 262320
TAFPWM
TAF
KPWM 262320Z 2700/2724 15006KT 6SM BR OVC007
     FM270200 11003KT 4SM BR OVC004
     FM270600 VRB03KT 1/2SM FG OVC002
     FM271200 07004KT 3SM BR OVC005
     FM271400 09004KT P6SM BKN015
     FM271600 15006KT P6SM BKN050=



000
FTUS41 KGYX 262320
TAFCON
TAF
KCON 262320Z 2700/2724 13004KT P6SM BKN035
     FM270900 00000KT 4SM BR BKN020
     FM271000 00000KT 2SM BR OVC007
     FM271200 00000KT P6SM OVC015
     FM271400 18006KT P6SM BKN050=



000
FTUS41 KGYX 262320
TAFPWM
TAF
KPWM 262320Z 2700/2724 15006KT 6SM BR OVC007
     FM270200 11003KT 4SM BR OVC004
     FM270600 VRB03KT 1/2SM FG OVC002
     FM271200 07004KT 3SM BR OVC005
     FM271400 09004KT P6SM BKN015
     FM271600 15006KT P6SM BKN050=



000
FTUS41 KGYX 262320
TAFAUG
TAF
KAUG 262320Z 2700/2724 17004KT 6SM BR OVC005
     FM270400 06002KT 1 1/2SM BR OVC002
     FM270600 00000KT 1/4SM FG OVC001
     FM271400 03003KT P6SM OVC007
     FM271600 14003KT P6SM BKN050=



000
FTUS41 KGYX 262320
TAFLEB
TAF
KLEB 262320Z 2700/2724 VRB03KT P6SM OVC050
     FM270600 00000KT 1 1/2SM BR OVC025
     FM270900 00000KT 1/2SM FG OVC001
     FM271300 VRB03KT 6SM BR OVC035
     FM271500 19003KT P6SM SCT040 SCT250=



000
FTUS41 KGYX 262320
TAFAUG
TAF
KAUG 262320Z 2700/2724 17004KT 6SM BR OVC005
     FM270400 06002KT 1 1/2SM BR OVC002
     FM270600 00000KT 1/4SM FG OVC001
     FM271400 03003KT P6SM OVC007
     FM271600 14003KT P6SM BKN050=



000
FTUS41 KGYX 262320
TAFCON
TAF
KCON 262320Z 2700/2724 13004KT P6SM BKN035
     FM270900 00000KT 4SM BR BKN020
     FM271000 00000KT 2SM BR OVC007
     FM271200 00000KT P6SM OVC015
     FM271400 18006KT P6SM BKN050=



000
FTUS41 KGYX 262320
TAFPSM
TAF
KPSM 262320Z 2700/2724 16005KT 6SM BR SCT025
     FM270600 00000KT 4SM BR SCT015
     FM270900 00000KT 3SM BR BKN012
     FM271300 12006KT P6SM BKN050=



000
FTUS41 KGYX 261846 AAA
TAFAUG
TAF AMD
KAUG 261846Z 2619/2718 15008KT P6SM OVC004
      TEMPO 2619/2622 1SM BR
     FM262200 15007KT 1SM BR OVC003
     FM270100 10004KT 1/4SM FG VV001
     FM271500 VRB03KT P6SM BKN012=



000
FTUS41 KGYX 261722
TAFCON
TAF
KCON 261722Z 2618/2718 16005KT P6SM OVC012
      TEMPO 2618/2620 SCT015 BKN025 BKN040
     FM262000 18005KT P6SM SCT015 BKN025 BKN040
     FM262300 VRB03KT P6SM SCT030 BKN045
     FM270200 00000KT P6SM SCT050 BKN200
     FM270900 00000KT 2SM BR BKN002
     FM271400 00000KT P6SM SCT035 BKN200=



000
FTUS41 KGYX 261722
TAFPWM
TAF
KPWM 261722Z 2618/2718 16008KT P6SM BKN007 OVC012
      TEMPO 2618/2620 SCT008 OVC012
     FM262000 15004KT P6SM BKN015 OVC025
     FM270000 VRB03KT P6SM SCT015 BKN025
     FM270600 VRB03KT 2SM BR OVC003
     FM271500 VRB03KT P6SM BKN012 BKN030=



000
FTUS41 KGYX 261722
TAFPWM
TAF
KPWM 261722Z 2618/2718 16008KT P6SM BKN007 OVC012
      TEMPO 2618/2620 SCT008 OVC012
     FM262000 15004KT P6SM BKN015 OVC025
     FM270000 VRB03KT P6SM SCT015 BKN025
     FM270600 VRB03KT 2SM BR OVC003
     FM271500 VRB03KT P6SM BKN012 BKN030=



000
FTUS41 KGYX 261722
TAFCON
TAF
KCON 261722Z 2618/2718 16005KT P6SM OVC012
      TEMPO 2618/2620 SCT015 BKN025 BKN040
     FM262000 18005KT P6SM SCT015 BKN025 BKN040
     FM262300 VRB03KT P6SM SCT030 BKN045
     FM270200 00000KT P6SM SCT050 BKN200
     FM270900 00000KT 2SM BR BKN002
     FM271400 00000KT P6SM SCT035 BKN200=



000
FTUS41 KGYX 261722
TAFLEB
TAF
KLEB 261722Z 2618/2718 17004KT P6SM BKN025 BKN040
      TEMPO 2618/2621 SCT025 BKN045
     FM262100 VRB04KT P6SM VCTS SCT030 BKN045CB
     FM270000 00000KT P6SM SCT050 BKN200
     FM270700 00000KT 1/4SM FG VV001
     FM271400 00000KT P6SM SCT035 BKN200=



000
FTUS41 KGYX 261722
TAFAUG
TAF
KAUG 261722Z 2618/2718 15008KT P6SM OVC004
      TEMPO 2618/2621 SCT008 OVC015
     FM262100 15007KT P6SM BKN015 OVC025
     FM270300 10004KT 1/4SM FG VV001
     FM271500 VRB03KT P6SM BKN012=



000
FTUS41 KGYX 261722
TAFPSM
TAF
KPSM 261722Z 2618/2718 12004KT P6SM SCT006 OVC015
      TEMPO 2618/2621 SCT015 BKN025 BKN040
     FM262100 15007KT P6SM BKN025 BKN045
     FM262300 16004KT P6SM SCT030 BKN045
     FM270100 19004KT P6SM SCT050 BKN200
     FM270800 27004KT 3SM BR BKN012
     FM271400 VRB04KT P6SM SCT035 BKN200=



000
FTUS41 KGYX 261722
TAFLEB
TAF
KLEB 261722Z 2618/2718 17004KT P6SM BKN025 BKN040
      TEMPO 2618/2621 SCT025 BKN045
     FM262100 VRB04KT P6SM VCTS SCT030 BKN045CB
     FM270000 00000KT P6SM SCT050 BKN200
     FM270700 00000KT 1/4SM FG VV001
     FM271400 00000KT P6SM SCT035 BKN200=



000
FTUS41 KGYX 261722
TAFPSM
TAF
KPSM 261722Z 2618/2718 12004KT P6SM SCT006 OVC015
      TEMPO 2618/2621 SCT015 BKN025 BKN040
     FM262100 15007KT P6SM BKN025 BKN045
     FM262300 16004KT P6SM SCT030 BKN045
     FM270100 19004KT P6SM SCT050 BKN200
     FM270800 27004KT 3SM BR BKN012
     FM271400 VRB04KT P6SM SCT035 BKN200=



000
FTUS41 KGYX 261722
TAFAUG
TAF
KAUG 261722Z 2618/2718 15008KT P6SM OVC004
      TEMPO 2618/2621 SCT008 OVC015
     FM262100 15007KT P6SM BKN015 OVC025
     FM270300 10004KT 1/4SM FG VV001
     FM271500 VRB03KT P6SM BKN012=



000
FTUS41 KGYX 261500 AAA
TAFPSM
TAF AMD
KPSM 261500Z 2615/2712 12004KT P6SM BKN006 OVC015
     FM261800 16007KT P6SM BKN015 OVC025
     FM262000 15007KT P6SM SCT025 BKN050=



000
FTUS41 KGYX 261457 AAA
TAFPWM
TAF AMD
KPWM 261457Z 2615/2712 14008KT P6SM VCSH SCT005 OVC012
      TEMPO 2615/2619 BKN005 OVC012
     FM261900 14004KT 4SM BR OVC015=



000
FTUS41 KGYX 261433 AAA
TAFAUG
TAF AMD
KAUG 261433Z 2615/2712 15008KT P6SM BKN003 OVC015
      TEMPO 2615/2618 BKN008 OVC015
     FM261800 15007KT P6SM BKN010 OVC015
     FM262000 15007KT P6SM BKN025 OVC050
     FM270300 10004KT 1/2SM FG VV002=



000
FTUS41 KGYX 261431 AAA
TAFLEB
TAF AMD
KLEB 261431Z 2615/2712 17004KT P6SM -SHRA BKN010 OVC050
      TEMPO 2615/2618 SCT015 BKN050 BKN090
     FM261800 16004KT P6SM VCTS SCT050CB SCT100
     FM270700 00000KT 1/4SM FG VV001=



000
FTUS41 KGYX 261131
TAFCON
TAF
KCON 261131Z 2612/2712 VRB03KT P6SM -SHRA OVC007
     FM261500 15005KT P6SM OVC015
     FM261800 16005KT P6SM SCT025 BKN050 PROB30 2623/2705 3SM -TSRA
      BKN025CB=



000
FTUS41 KGYX 261131
TAFAUG
TAF
KAUG 261131Z 2612/2712 16004KT 2SM -SHRA BR BKN003 OVC015
     FM261400 15007KT 6SM -SHRA BR BKN010 OVC015
     FM261800 15007KT P6SM BKN025 OVC050
     FM270300 10004KT 1/2SM FG VV002=



000
FTUS41 KGYX 261131
TAFPWM
TAF
KPWM 261131Z 2612/2712 12004KT 6SM -SHRA BR BKN005 OVC012
     FM261500 14008KT P6SM BKN009 OVC025
     FM262000 14004KT 4SM BR OVC015=



000
FTUS41 KGYX 261131
TAFLEB
TAF
KLEB 261131Z 2612/2712 17004KT P6SM -SHRA BKN015 BKN080
     FM261400 16004KT P6SM BKN025
     FM261600 16004KT P6SM SCT050 PROB30 2621/2703 2SM -TSRA
      BKN025CB
     FM270700 00000KT 1/4SM FG VV001=



000
FTUS41 KGYX 261131
TAFPSM
TAF
KPSM 261131Z 2612/2712 12004KT 6SM -SHRA BR BKN006 OVC015
     FM261500 16007KT P6SM BKN015 OVC025
     FM261800 15007KT P6SM SCT025 BKN050=



000
FTUS41 KGYX 261131
TAFLEB
TAF
KLEB 261131Z 2612/2712 17004KT P6SM -SHRA BKN015 BKN080
     FM261400 16004KT P6SM BKN025
     FM261600 16004KT P6SM SCT050 PROB30 2621/2703 2SM -TSRA
      BKN025CB
     FM270700 00000KT 1/4SM FG VV001=



000
FTUS41 KGYX 261131
TAFPWM
TAF
KPWM 261131Z 2612/2712 12004KT 6SM -SHRA BR BKN005 OVC012
     FM261500 14008KT P6SM BKN009 OVC025
     FM262000 14004KT 4SM BR OVC015=



000
FTUS41 KGYX 261131
TAFAUG
TAF
KAUG 261131Z 2612/2712 16004KT 2SM -SHRA BR BKN003 OVC015
     FM261400 15007KT 6SM -SHRA BR BKN010 OVC015
     FM261800 15007KT P6SM BKN025 OVC050
     FM270300 10004KT 1/2SM FG VV002=



000
FTUS41 KGYX 261131
TAFCON
TAF
KCON 261131Z 2612/2712 VRB03KT P6SM -SHRA OVC007
     FM261500 15005KT P6SM OVC015
     FM261800 16005KT P6SM SCT025 BKN050 PROB30 2623/2705 3SM -TSRA
      BKN025CB=



000
FTUS41 KGYX 261131
TAFPSM
TAF
KPSM 261131Z 2612/2712 12004KT 6SM -SHRA BR BKN006 OVC015
     FM261500 16007KT P6SM BKN015 OVC025
     FM261800 15007KT P6SM SCT025 BKN050=



000
FTUS41 KGYX 260952 AAD
TAFPWM
TAF AMD
KPWM 260952Z 2610/2706 18003KT 2SM -RA BR BKN005 OVC035
     FM261100 16004KT 1 1/2SM -RA BR OVC007
     FM261300 17005KT 2SM -SHRA BR OVC004
     FM261500 16008KT 4SM -SHRA BR OVC007
     FM262000 14004KT 4SM BR OVC015=



000
FTUS41 KGYX 260913 AAC
TAFAUG
TAF AMD
KAUG 260913Z 2609/2706 VRB03KT 1SM -RA BR BKN002 BKN035
     FM261200 17004KT 1 1/2SM -RA BR OVC007
     FM261600 16007KT 5SM BR OVC012=



000
FTUS41 KGYX 260913 AAA
TAFLEB
TAF AMD
KLEB 260913Z 2609/2706 VRB04KT P6SM OVC012
     FM261000 18002KT 1 1/2SM -RA BR OVC003
     FM261400 19004KT 6SM -SHRA BR OVC015
     FM261500 19004KT P6SM OVC040=



000
FTUS41 KGYX 260913 AAB
TAFPSM
TAF AMD
KPSM 260913Z 2609/2706 12005KT P6SM BKN008 BKN012 OVC100
     FM260930 13003KT 4SM -RA BR OVC004
     FM261400 18006KT 4SM -SHRA BR OVC015
     FM261800 15008KT 3SM -SHRA BKN025 PROB30 2620/2623 6SM TS
      BKN050CB=



000
FTUS41 KGYX 260913 AAA
TAFCON
TAF AMD
KCON 260913Z 2609/2706 VRB03KT P6SM OVC007
     FM261300 16003KT 4SM -RA BR OVC015
     FM261500 17005KT P6SM -SHRA OVC015
     FM270000 18005KT P6SM BKN050 BKN250=



000
FTUS41 KGYX 260913 AAC
TAFPWM
TAF AMD
KPWM 260913Z 2609/2706 18003KT 2SM -RA BR FEW005 OVC035
     FM261100 16004KT 1 1/2SM -RA BR OVC007
     FM261300 17005KT 2SM -SHRA BR OVC004
     FM261500 16008KT 4SM -SHRA BR OVC007
     FM262000 14004KT 4SM BR OVC015=



000
FTUS41 KGYX 260821 AAB
TAFAUG
TAF AMD
KAUG 260821Z 2608/2706 VRB03KT 1SM -RA BR BKN002 BKN050
      TEMPO 2608/2610 P6SM NSW SCT001 BKN100
     FM261200 17004KT 1 1/2SM -RA BR OVC007
     FM261600 16007KT 5SM BR OVC012=



000
FTUS41 KGYX 260820 AAB
TAFPWM
TAF AMD
KPWM 260820Z 2608/2706 18003KT 2SM -RA BR FEW015 OVC040
     FM261000 16004KT 1 1/2SM -RA BR OVC007
     FM261300 17005KT 2SM -SHRA BR OVC004
     FM261500 16008KT 4SM BR OVC007 PROB30 2617/2619 -SHRA OVC015
     FM262300 14004KT 4SM BR OVC015=



000
FTUS41 KGYX 260806 AAA
TAFPWM
TAF AMD
KPWM 260806Z 2608/2706 18003KT P6SM FEW010 OVC040
     FM261000 16004KT 1 1/2SM -RA BR OVC007
     FM261300 17005KT 2SM -SHRA BR OVC004
     FM261500 16008KT 4SM BR OVC007 PROB30 2617/2619 -SHRA OVC015
     FM262300 14004KT 4SM BR OVC015=



000
FTUS41 KGYX 260806 AAA
TAFPWM
TAF AMD
KPWM 260806Z 2608/2706 18003KT P6SM FEW010 OVC040
     FM261000 16004KT 1 1/2SM -RA BR OVC007
     FM261300 17005KT 2SM -SHRA BR OVC004
     FM261500 16008KT 4SM BR OVC007 PROB30 2617/2619 -SHRA OVC015
     FM262300 14004KT 4SM BR OVC015=



000
FTUS41 KGYX 260636 AAA
TAFAUG
TAF AMD
KAUG 260636Z 2607/2706 VRB03KT 5SM BR BKN002 BKN050
      TEMPO 2607/2610 P6SM NSW SCT001 BKN100
     FM261200 17004KT 1 1/2SM -RA BR OVC007
     FM261600 16007KT 5SM BR OVC012=



000
FTUS41 KGYX 260633 AAA
TAFPSM
TAF AMD
KPSM 260633Z 2607/2706 11005KT P6SM BKN008 OVC035
     FM260800 13003KT 4SM -RA BR OVC004
     FM261400 18006KT 4SM -SHRA BR OVC015
     FM261800 15008KT 3SM -SHRA BKN025 PROB30 2620/2623 6SM TS
      BKN050CB=



000
FTUS41 KGYX 260520
TAFPSM
TAF
KPSM 260520Z 2606/2706 07003KT P6SM BKN012 OVC100
     FM260730 13003KT 4SM -RA BR OVC004
     FM261400 18006KT 4SM -SHRA BR OVC015
     FM261800 15008KT 3SM -SHRA BKN025 PROB30 2620/2623 6SM TS
      BKN050CB=



000
FTUS41 KGYX 260520
TAFLEB
TAF
KLEB 260520Z 2606/2706 16004KT P6SM OVC015
     FM261000 18002KT 1 1/2SM -RA BR OVC003
     FM261400 19004KT 6SM -SHRA BR OVC015
     FM261500 19004KT P6SM OVC040=



000
FTUS41 KGYX 260520
TAFPWM
TAF
KPWM 260520Z 2606/2706 18003KT P6SM OVC007
     FM261000 16004KT 1 1/2SM -RA BR OVC007
     FM261300 17005KT 2SM -SHRA BR OVC004
     FM261500 16008KT 4SM BR OVC007 PROB30 2617/2619 -SHRA OVC015
     FM262300 14004KT 4SM BR OVC015=



000
FTUS41 KGYX 260520
TAFCON
TAF
KCON 260520Z 2606/2706 VRB03KT P6SM OVC009
     FM261300 16003KT 4SM -RA BR OVC015
     FM261500 17005KT P6SM OVC015 PROB30 2616/2618 4SM -SHRA OVC015
     FM270000 18005KT P6SM -SHRA VCTS BKN050CB BKN250=



000
FTUS41 KGYX 260520
TAFPSM
TAF
KPSM 260520Z 2606/2706 07003KT P6SM BKN012 OVC100
     FM260730 13003KT 4SM -RA BR OVC004
     FM261400 18006KT 4SM -SHRA BR OVC015
     FM261800 15008KT 3SM -SHRA BKN025 PROB30 2620/2623 6SM TS
      BKN050CB=



000
FTUS41 KGYX 260520
TAFAUG
TAF
KAUG 260520Z 2606/2706 21003KT 5SM BR BKN002 BKN050
     FM261200 17004KT 1 1/2SM -RA BR OVC007
     FM261600 16007KT 5SM BR OVC012=



000
FTUS41 KGYX 260520
TAFLEB
TAF
KLEB 260520Z 2606/2706 16004KT P6SM OVC015
     FM261000 18002KT 1 1/2SM -RA BR OVC003
     FM261400 19004KT 6SM -SHRA BR OVC015
     FM261500 19004KT P6SM OVC040=



000
FTUS41 KGYX 260520
TAFPWM
TAF
KPWM 260520Z 2606/2706 18003KT P6SM OVC007
     FM261000 16004KT 1 1/2SM -RA BR OVC007
     FM261300 17005KT 2SM -SHRA BR OVC004
     FM261500 16008KT 4SM BR OVC007 PROB30 2617/2619 -SHRA OVC015
     FM262300 14004KT 4SM BR OVC015=



000
FTUS41 KGYX 260520
TAFCON
TAF
KCON 260520Z 2606/2706 VRB03KT P6SM OVC009
     FM261300 16003KT 4SM -RA BR OVC015
     FM261500 17005KT P6SM OVC015 PROB30 2616/2618 4SM -SHRA OVC015
     FM270000 18005KT P6SM -SHRA VCTS BKN050CB BKN250=



000
FTUS41 KGYX 260520
TAFAUG
TAF
KAUG 260520Z 2606/2706 21003KT 5SM BR BKN002 BKN050
     FM261200 17004KT 1 1/2SM -RA BR OVC007
     FM261600 16007KT 5SM BR OVC012=



000
FTUS41 KGYX 260400 AAB
TAFPWM
TAF AMD
KPWM 260400Z 2604/2624 18003KT P6SM OVC007
     FM260600 16003KT 3SM BR OVC004
     FM261000 16004KT 1 1/2SM -RA BR OVC007
     FM261500 16008KT 6SM -SHRA BR OVC020=



000
FTUS41 KGYX 260257 AAA
TAFLEB
TAF AMD
KLEB 260257Z 2603/2624 VRB03KT P6SM BKN020
     FM260600 00000KT 4SM -RA BR SCT007 OVC015
     FM261000 18002KT 1 1/2SM -RA BR OVC003
     FM261400 19004KT 6SM BR OVC015
     FM261500 19004KT P6SM OVC040=



000
FTUS41 KGYX 260256 AAA
TAFAUG
TAF AMD
KAUG 260256Z 2603/2624 17004KT P6SM SCT010
     FM260500 18004KT 4SM BR OVC004
     FM260800 17003KT 3/4SM BR OVC002
     FM261200 17004KT 1 1/2SM -RA BR OVC007
     FM261600 16007KT 5SM BR OVC012=



000
FTUS41 KGYX 260256 AAA
TAFPSM
TAF AMD
KPSM 260256Z 2603/2624 13004KT 6SM BR OVC010
     FM260600 14003KT 2SM BR OVC004
     FM261000 18005KT 4SM -RA BR OVC004
     FM261400 18006KT 6SM BR OVC015
     FM261700 15008KT P6SM BKN050=



000
FTUS41 KGYX 260256 AAA
TAFAUG
TAF AMD
KAUG 260256Z 2603/2624 17004KT P6SM SCT010
     FM260500 18004KT 4SM BR OVC004
     FM260800 17003KT 3/4SM BR OVC002
     FM261200 17004KT 1 1/2SM -RA BR OVC007
     FM261600 16007KT 5SM BR OVC012=



000
FTUS41 KGYX 260255 AAA
TAFPWM
TAF AMD
KPWM 260255Z 2603/2624 16003KT 5SM BR OVC010
     FM260600 16003KT 3SM BR OVC004
     FM261000 16004KT 1 1/2SM -RA BR OVC007
     FM261500 16008KT 6SM -SHRA BR OVC020=



000
FTUS41 KGYX 252320
TAFPSM
TAF
KPSM 252320Z 2600/2624 13004KT 6SM BR OVC007
     FM260600 14003KT 2SM BR OVC003
     FM261000 18005KT 4SM -RA BR OVC005
     FM261400 18006KT 6SM BR OVC015
     FM261700 15008KT P6SM BKN050=



000
FTUS41 KGYX 252320
TAFAUG
TAF
KAUG 252320Z 2600/2624 17004KT P6SM SCT010 BKN015
     FM260400 18004KT 4SM BR OVC003
     FM260700 17003KT 3/4SM BR OVC002
     FM261200 17004KT 1 1/2SM -RA BR OVC007
     FM261600 16007KT 5SM BR OVC012=



000
FTUS41 KGYX 252320
TAFPWM
TAF
KPWM 252320Z 2600/2624 15005KT P6SM BKN010
     FM260300 16003KT 5SM BR OVC007
     FM260600 16003KT 3SM BR OVC003
     FM261000 16004KT 1 1/2SM -RA BR OVC007
     FM261500 16008KT 6SM -SHRA BR OVC020=



000
FTUS41 KGYX 252320
TAFLEB
TAF
KLEB 252320Z 2600/2624 VRB03KT P6SM OVC100
     FM260600 00000KT 4SM -RA BR SCT007 OVC015
     FM261000 18002KT 1 1/2SM -RA BR OVC003
     FM261400 19004KT 6SM BR OVC015
     FM261500 19004KT P6SM OVC040=



000
FTUS41 KGYX 252320
TAFCON
TAF
KCON 252320Z 2600/2624 14005KT P6SM SCT030 BKN100
     FM260400 15002KT 6SM BR OVC015
     FM260800 14003KT 4SM -RA BR SCT007 OVC015
     FM261400 18005KT P6SM BKN050=



    US Dept of Commerce
    National Oceanic and Atmospheric Administration
    National Weather Service
    1325 East West Highway
    Silver Spring, MD 20910
    Page Author: NWS Internet Services Team
Disclaimer
Information Quality
Credits
Glossary
Privacy Policy
Freedom of Information Act (FOIA)
About Us
Career Opportunities